18PN weather

Spud View Airport
Upper Strasburg, Pennsylvania, United States

Public forecast

Using degrees Fahrenheit for public forecast. Weather courtesy of forecast.io.

METAR (pilot weather report)

Closest report is Hagerstown Regional Richard A Henson Field, 21.5 nm (39.9 km) S. Retrieved 2019/05/19 13:53 UTC (55 minutes ago):

KHGR 191353Z 19004KT 9SM CLR 23/18 A3001 RMK AO2 SLP166 T02330178

TAF (pilot weather forecast)

Closest forecast is Altoona Blair County Airport, 31.9 nm (59.2 km) WNW. Retrieved 2019/05/19 12:54 UTC (2 hours ago):

TAF KAOO 191150Z 1912/2012 VRB02KT 4SM BR FEW060 FM191230 19006KT P6SM SCT050 FM191600 20008KT P6SM VCSH BKN040 FM191800 21010G16KT P6SM -SHRA VCTS BKN040CB FM200000 22007KT P6SM BKN050